Delta Virtual Airport Information Service

Innsbruck Kranebitten Airport

ICAO: LOWI Country: Austria
Latitude: 47.2602 Longitude: 11.344
Latest Arrival : EZY8291 (1) (EGKK-LOWI) Latest Departure : DAC212 (LOWI-EHAM)


WX CaptureLIVE
Data provided by noaa.gov | Fetched at 23:18:16

METAR : LOWI 120350Z 26003KT 220V310 9999 -RA FEW006 SCT015 BKN030 09/08 Q1012 NOSIG

TAF : LOWI 112315Z 1200/1224 29010KT 9999 RA FEW010 BKN040 TX11/1211Z TN08/1224Z TEMPO 1200/1210 08008KT -RA BECMG 1210/1212 08005KT NSW


Runway Data for LOWI
Data provided by openaviationdata.com

Runway ID Mag Var Hdg Length Elevation Surface ILS Freq ILS Id ILS Slope
8 1 79° 6551 ft 1900 ft Bituminous 109.7 OEJ 0
26 1 259° 6551 ft 1900 ft Bituminous 111.1 OEV 3

Innsbruck Kranebitten Airport, Austria
Use only for reference purposes



Not for navigational purposes.